Time;durP1;ratioP1;P1;durP2;ratioP2;P2;SDS_P1;SDS_P2;PMS_P1;PMS_P2;Temp;Humidity;BMP_temperature;BMP_pressure;BME280_temperature;BME280_humidity;BME280_pressure;Samples;Min_cycle;Max_cycle;Signal;HPM_P1;HPM_P2
2023/03/09 00:01:19;;;;;;;40.10;18.17;;;;;;;7.72;61.96;99265.03;5065888;28;20530;-70
2023/03/09 00:03:45;;;;;;;38.40;17.47;;;;;;;7.09;64.66;99272.47;5065284;28;20373;-69
2023/03/09 00:06:11;;;;;;;44.00;18.97;;;;;;;6.85;64.88;99281.59;5067141;28;20058;-69
2023/03/09 00:08:37;;;;;;;38.23;17.67;;;;;;;7.16;64.12;99284.44;5068309;28;20033;-69
2023/03/09 00:11:04;;;;;;;38.70;19.27;;;;;;;7.95;62.22;99267.97;5066393;28;20036;-69
2023/03/09 00:13:30;;;;;;;46.10;17.93;;;;;;;7.29;62.65;99267.72;5063279;28;20032;-70
2023/03/09 00:15:55;;;;;;;37.30;17.00;;;;;;;7.64;61.25;99281.66;5062372;28;20480;-69
2023/03/09 00:18:22;;;;;;;39.53;18.17;;;;;;;7.96;59.79;99285.25;5058263;28;20082;-69
2023/03/09 00:20:48;;;;;;;37.80;17.47;;;;;;;7.14;60.87;99291.41;5063360;28;20033;-70
2023/03/09 00:23:17;;;;;;;41.30;19.33;;;;;;;7.76;61.22;99297.88;5062385;28;20666;-70
2023/03/09 00:25:44;;;;;;;38.83;16.67;;;;;;;6.91;62.16;99292.75;5065557;28;20059;-70
2023/03/09 00:28:09;;;;;;;38.07;16.73;;;;;;;7.46;61.19;99305.50;5065113;28;20077;-69
2023/03/09 00:30:35;;;;;;;38.67;15.70;;;;;;;6.62;62.62;99307.13;5066625;28;20024;-68
2023/03/09 00:33:01;;;;;;;33.57;15.90;;;;;;;7.51;62.56;99326.19;5064008;28;20476;-68
2023/03/09 00:35:26;;;;;;;35.60;16.57;;;;;;;7.98;58.63;99325.13;5068111;28;20024;-69
2023/03/09 00:37:52;;;;;;;35.40;16.00;;;;;;;7.94;59.65;99333.88;5060395;28;20449;-68
2023/03/09 00:40:17;;;;;;;34.07;16.50;;;;;;;7.52;61.17;99336.56;5067792;28;20017;-69
2023/03/09 00:42:44;;;;;;;39.47;18.30;;;;;;;8.85;56.76;99329.94;5065394;28;20024;-68
2023/03/09 00:45:10;;;;;;;31.73;14.23;;;;;;;6.99;62.85;99320.31;5066051;28;20028;-68
2023/03/09 00:47:37;;;;;;;34.90;17.63;;;;;;;7.32;61.29;99299.72;5061080;28;20505;-68
2023/03/09 00:50:02;;;;;;;30.37;14.80;;;;;;;7.18;62.41;99306.06;5046715;28;20068;-69
2023/03/09 00:52:28;;;;;;;37.43;16.23;;;;;;;7.11;62.49;99331.31;5053594;28;20021;-68
2023/03/09 00:54:53;;;;;;;32.17;16.07;;;;;;;7.79;59.57;99339.44;5065452;28;20028;-68
2023/03/09 00:57:20;;;;;;;35.43;16.70;;;;;;;7.96;59.63;99332.09;5068249;28;20068;-68
2023/03/09 00:59:46;;;;;;;34.63;15.93;;;;;;;8.08;58.64;99330.13;5064709;28;20027;-68
2023/03/09 01:02:11;;;;;;;35.27;18.13;;;;;;;7.72;60.16;99327.44;5066228;28;20020;-68
2023/03/09 01:04:37;;;;;;;37.20;16.60;;;;;;;7.63;60.54;99321.56;5051452;28;20052;-68
2023/03/09 01:07:03;;;;;;;43.47;17.57;;;;;;;8.02;57.49;99314.63;5067467;28;20024;-68
2023/03/09 01:09:28;;;;;;;29.67;14.77;;;;;;;8.10;58.29;99308.34;5066176;28;20035;-68
2023/03/09 01:11:53;;;;;;;34.07;16.57;;;;;;;8.25;58.46;99319.28;5066986;28;20033;-67
2023/03/09 01:14:19;;;;;;;36.97;16.50;;;;;;;7.71;59.24;99333.56;5068545;28;20501;-68
2023/03/09 01:16:44;;;;;;;39.33;17.30;;;;;;;7.77;60.36;99346.41;5069049;28;20032;-68
2023/03/09 01:19:09;;;;;;;32.53;14.73;;;;;;;7.92;56.70;99356.47;5069903;28;20108;-68
2023/03/09 01:21:35;;;;;;;32.20;14.87;;;;;;;7.24;60.46;99363.13;5067053;28;20362;-68
2023/03/09 01:24:00;;;;;;;35.87;16.03;;;;;;;7.98;57.79;99382.38;5068280;28;20466;-68
2023/03/09 01:26:25;;;;;;;33.17;15.47;;;;;;;8.07;57.92;99376.09;5069412;28;20031;-68
2023/03/09 01:28:51;;;;;;;40.60;17.03;;;;;;;8.38;57.42;99382.31;5068484;28;20861;-68
2023/03/09 01:31:16;;;;;;;37.17;16.47;;;;;;;8.82;56.06;99375.19;5070080;28;20013;-68
2023/03/09 01:33:43;;;;;;;36.30;16.03;;;;;;;8.44;57.02;99363.97;5070072;28;20078;-68
2023/03/09 01:36:13;;;;;;;34.53;15.20;;;;;;;8.63;56.72;99360.03;5067678;28;20491;-69
2023/03/09 01:38:38;;;;;;;31.23;15.63;;;;;;;9.36;54.09;99352.03;5070285;28;20108;-68
2023/03/09 01:41:04;;;;;;;32.70;15.53;;;;;;;8.87;54.27;99347.25;5066893;28;20123;-68
2023/03/09 01:43:39;;;;;;;32.60;15.00;;;;;;;7.18;60.83;99364.97;5061202;28;20361;-68
2023/03/09 01:46:20;;;;;;;30.57;14.60;;;;;;;7.94;58.89;99369.44;5067458;28;20040;-68
2023/03/09 01:49:08;;;;;;;27.23;13.93;;;;;;;8.97;55.96;99353.06;5061600;28;20025;-68
2023/03/09 01:51:41;;;;;;;28.40;13.37;;;;;;;7.76;57.72;99378.50;5061498;28;20060;-68
2023/03/09 01:54:11;;;;;;;29.85;14.07;;;;;;;8.15;55.64;99394.16;5069264;28;20485;-68
2023/03/09 01:56:39;;;;;;;27.10;13.83;;;;;;;7.97;60.04;99401.47;5058162;28;20100;-68
2023/03/09 01:59:07;;;;;;;25.20;11.63;;;;;;;8.18;57.66;99396.66;5061189;28;20107;-68
2023/03/09 02:01:33;;;;;;;27.10;12.63;;;;;;;8.99;55.47;99385.16;5070363;28;20024;-68
2023/03/09 02:04:06;;;;;;;23.07;12.73;;;;;;;8.92;54.67;99394.03;5067974;28;20025;-68
2023/03/09 02:06:31;;;;;;;26.92;13.20;;;;;;;8.78;53.78;99389.19;5061134;28;20186;-68
2023/03/09 02:09:07;;;;;;;24.97;11.47;;;;;;;8.66;55.18;99396.41;5066965;28;20610;-68
2023/03/09 02:11:34;;;;;;;27.93;13.13;;;;;;;9.00;54.68;99392.94;5067487;28;20146;-68
2023/03/09 02:14:00;;;;;;;23.43;11.70;;;;;;;7.56;58.73;99405.81;5069849;28;20035;-68
2023/03/09 02:16:25;;;;;;;27.37;13.20;;;;;;;7.83;58.07;99408.72;5069981;28;20027;-68
2023/03/09 02:18:51;;;;;;;29.53;13.07;;;;;;;8.58;56.87;99408.75;5068108;28;20028;-68
2023/03/09 02:21:25;;;;;;;27.80;13.10;;;;;;;8.75;56.78;99404.88;5070993;28;20092;-68
2023/03/09 02:24:15;;;;;;;25.13;12.47;;;;;;;8.63;56.77;99399.09;5067108;28;20400;-68
2023/03/09 02:26:53;;;;;;;24.10;11.60;;;;;;;8.37;57.37;99409.28;5067547;28;20047;-68
2023/03/09 02:29:18;;;;;;;23.53;11.27;;;;;;;9.47;53.48;99402.13;5058183;28;20039;-68
2023/03/09 02:31:44;;;;;;;21.20;11.40;;;;;;;8.62;54.77;99415.59;5061750;28;20028;-68
2023/03/09 02:34:10;;;;;;;26.53;12.17;;;;;;;8.51;55.39;99422.00;5062149;28;20024;-68
2023/03/09 02:36:35;;;;;;;22.37;11.80;;;;;;;8.11;56.50;99428.94;5068406;28;20017;-68
2023/03/09 02:39:18;;;;;;;25.03;12.03;;;;;;;8.35;55.74;99437.06;5066441;28;20299;-68
2023/03/09 02:41:43;;;;;;;26.63;12.02;;;;;;;8.40;55.14;99440.44;5069787;28;20103;-68
2023/03/09 02:44:10;;;;;;;26.43;14.47;;;;;;;8.11;56.88;99439.34;5053184;28;20115;-68
2023/03/09 02:46:35;;;;;;;20.63;11.13;;;;;;;8.17;56.38;99428.78;5067228;28;20059;-68
2023/03/09 02:49:00;;;;;;;22.67;11.77;;;;;;;8.23;56.73;99420.84;5066627;28;20032;-68
2023/03/09 02:51:26;;;;;;;24.07;12.20;;;;;;;8.21;55.86;99429.59;5069285;28;20024;-68
2023/03/09 02:53:51;;;;;;;25.10;12.00;;;;;;;8.61;55.49;99421.75;5067219;28;20074;-68
2023/03/09 02:56:16;;;;;;;25.03;12.70;;;;;;;7.58;57.38;99427.44;5052078;28;20497;-68
2023/03/09 02:58:42;;;;;;;25.23;13.07;;;;;;;8.78;55.66;99423.06;5066459;28;20484;-68
2023/03/09 03:01:07;;;;;;;25.37;12.00;;;;;;;8.49;56.64;99440.25;5068719;28;20480;-68
2023/03/09 03:03:33;;;;;;;20.37;10.07;;;;;;;8.41;55.26;99447.38;5067499;28;20048;-68
2023/03/09 03:05:59;;;;;;;23.33;11.83;;;;;;;8.63;55.37;99453.78;5061857;28;20400;-68
2023/03/09 03:08:24;;;;;;;24.30;12.33;;;;;;;8.35;56.13;99452.69;5063223;28;20021;-68
2023/03/09 03:10:50;;;;;;;26.90;12.13;;;;;;;8.73;55.31;99437.94;5066395;28;20024;-68
2023/03/09 03:13:15;;;;;;;22.50;11.80;;;;;;;8.35;56.73;99437.91;5054028;28;20028;-68
2023/03/09 03:15:40;;;;;;;23.53;12.00;;;;;;;8.05;57.36;99439.47;5066838;28;20543;-68
2023/03/09 03:18:06;;;;;;;26.57;13.60;;;;;;;8.14;57.22;99441.88;5068041;28;20086;-69
2023/03/09 03:20:31;;;;;;;26.67;11.80;;;;;;;7.90;57.49;99446.72;5062968;28;20586;-68
2023/03/09 03:22:57;;;;;;;26.30;12.13;;;;;;;7.53;58.21;99442.28;5049858;28;20048;-67
2023/03/09 03:25:22;;;;;;;24.37;11.43;;;;;;;7.98;56.92;99452.63;5067173;28;20051;-68
2023/03/09 03:27:47;;;;;;;23.97;12.27;;;;;;;8.62;55.93;99452.06;5067594;28;20037;-68
2023/03/09 03:30:13;;;;;;;27.80;12.97;;;;;;;8.21;57.11;99456.47;5066868;28;20032;-68
2023/03/09 03:32:39;;;;;;;24.30;11.80;;;;;;;8.71;54.67;99469.25;5065967;28;20388;-68
2023/03/09 03:35:05;;;;;;;27.80;13.73;;;;;;;8.65;54.49;99472.00;5066643;28;20099;-68
2023/03/09 03:37:31;;;;;;;28.43;14.37;;;;;;;8.10;55.16;99476.66;5062523;28;20463;-68
2023/03/09 03:39:56;;;;;;;22.40;11.50;;;;;;;8.75;55.41;99462.19;5060977;28;20025;-68
2023/03/09 03:42:22;;;;;;;25.63;13.07;;;;;;;8.15;57.03;99470.47;5063223;28;20359;-68
2023/03/09 03:44:47;;;;;;;26.07;11.90;;;;;;;8.45;55.69;99462.91;5068504;28;20377;-68
2023/03/09 03:47:13;;;;;;;27.47;12.60;;;;;;;7.84;56.30;99467.66;5067268;28;20051;-68
2023/03/09 03:49:38;;;;;;;22.57;11.40;;;;;;;7.77;56.66;99476.47;5065768;28;20502;-68
2023/03/09 03:52:04;;;;;;;26.37;12.90;;;;;;;7.96;57.87;99484.78;5066950;28;20103;-68
2023/03/09 03:54:30;;;;;;;26.07;12.60;;;;;;;8.46;54.95;99492.41;5067136;28;20173;-68
2023/03/09 03:56:55;;;;;;;23.23;11.83;;;;;;;8.19;56.32;99489.50;5046396;28;20497;-68
2023/03/09 03:59:21;;;;;;;25.37;12.13;;;;;;;8.84;54.20;99498.47;5048873;28;20043;-68
2023/03/09 04:01:46;;;;;;;28.33;12.13;;;;;;;8.64;55.42;99515.44;5050333;28;20545;-68
2023/03/09 04:04:12;;;;;;;23.70;11.90;;;;;;;8.39;54.17;99522.03;5066989;28;20077;-68
2023/03/09 04:06:37;;;;;;;29.17;13.47;;;;;;;8.73;54.97;99526.53;5067875;28;20032;-68
2023/03/09 04:09:04;;;;;;;25.13;12.37;;;;;;;8.08;55.52;99527.91;5068094;28;20035;-68
2023/03/09 04:11:30;;;;;;;24.00;12.07;;;;;;;9.17;52.93;99532.41;5054892;28;20028;-68
2023/03/09 04:13:56;;;;;;;25.63;11.90;;;;;;;8.82;53.83;99536.75;5066262;28;20514;-68
2023/03/09 04:16:21;;;;;;;27.77;12.50;;;;;;;8.18;54.77;99537.22;5050905;28;20487;-68
2023/03/09 04:18:47;;;;;;;28.40;12.33;;;;;;;8.71;52.98;99538.72;5048237;28;20032;-68
2023/03/09 04:21:12;;;;;;;27.27;12.60;;;;;;;8.35;54.70;99551.63;5067192;28;20388;-68
2023/03/09 04:23:37;;;;;;;25.13;12.87;;;;;;;8.94;53.58;99544.28;5065030;28;20384;-68
2023/03/09 04:26:04;;;;;;;27.87;13.13;;;;;;;7.88;54.97;99549.97;5064546;28;20097;-67
2023/03/09 04:28:30;;;;;;;25.87;12.87;;;;;;;8.01;57.92;99548.00;5063300;28;20024;-68
2023/03/09 04:30:56;;;;;;;29.97;13.17;;;;;;;9.61;52.54;99555.66;5068407;28;20093;-68
2023/03/09 04:33:22;;;;;;;26.07;12.90;;;;;;;9.30;52.91;99565.13;5066744;28;20553;-68
2023/03/09 04:35:47;;;;;;;27.93;13.00;;;;;;;8.46;54.75;99575.72;5065346;28;20087;-68
2023/03/09 04:38:13;;;;;;;26.93;14.03;;;;;;;7.97;56.24;99570.59;5067396;28;20044;-68
2023/03/09 04:40:38;;;;;;;30.03;13.47;;;;;;;8.23;55.71;99561.44;5064811;28;20035;-68
2023/03/09 04:43:04;;;;;;;26.40;12.43;;;;;;;8.39;55.56;99574.13;5057132;28;20020;-68
2023/03/09 04:45:30;;;;;;;27.77;12.97;;;;;;;9.31;53.31;99566.84;5061494;28;20036;-68
2023/03/09 04:47:56;;;;;;;25.53;12.70;;;;;;;8.66;53.54;99577.91;5059126;28;20071;-68
2023/03/09 04:50:22;;;;;;;23.07;12.17;;;;;;;9.57;51.29;99578.34;5070808;28;20495;-68
2023/03/09 04:52:49;;;;;;;27.97;12.83;;;;;;;9.71;51.83;99582.34;5070345;28;20044;-68
2023/03/09 04:55:14;;;;;;;24.40;12.60;;;;;;;9.41;52.08;99582.22;5076514;28;20021;-68
2023/03/09 04:57:40;;;;;;;25.43;12.93;;;;;;;9.16;52.95;99582.84;5066422;28;20472;-68
2023/03/09 05:00:09;;;;;;;23.57;11.97;;;;;;;8.59;53.98;99582.41;5066927;28;20035;-68
2023/03/09 05:02:35;;;;;;;23.30;11.30;;;;;;;8.88;53.68;99582.66;5062487;28;20016;-68
2023/03/09 05:05:00;;;;;;;24.60;11.50;;;;;;;7.84;55.50;99582.13;5065073;28;20012;-68
2023/03/09 05:07:25;;;;;;;25.87;11.13;;;;;;;9.02;53.73;99590.97;5064664;28;20064;-68
2023/03/09 05:09:51;;;;;;;24.83;12.37;;;;;;;7.85;55.97;99588.22;5066551;28;20721;-68
2023/03/09 05:12:16;;;;;;;25.97;11.97;;;;;;;9.15;53.74;99575.94;5066797;28;20173;-68
2023/03/09 05:14:42;;;;;;;21.97;10.30;;;;;;;8.59;54.18;99579.78;5064826;28;20024;-68
2023/03/09 05:17:07;;;;;;;21.13;11.27;;;;;;;8.56;54.70;99582.47;5066711;28;20052;-68
2023/03/09 05:19:35;;;;;;;24.57;11.80;;;;;;;7.61;57.87;99578.22;5068131;28;20031;-68
2023/03/09 05:22:02;;;;;;;26.93;12.17;;;;;;;8.22;54.39;99577.94;5065059;28;20436;-68
2023/03/09 05:24:28;;;;;;;24.03;10.90;;;;;;;7.35;58.46;99575.19;5065422;28;20415;-68
2023/03/09 05:26:53;;;;;;;24.60;11.73;;;;;;;8.19;56.66;99583.19;5066445;28;20029;-71
2023/03/09 05:29:19;;;;;;;22.93;10.87;;;;;;;8.48;54.14;99590.44;5066296;28;20484;-68
2023/03/09 05:31:44;;;;;;;22.27;11.67;;;;;;;8.59;54.61;99597.19;5068110;28;20124;-68
2023/03/09 05:34:09;;;;;;;27.00;12.23;;;;;;;9.27;52.05;99604.31;5065682;28;20495;-68
2023/03/09 05:36:35;;;;;;;29.80;12.77;;;;;;;8.82;53.24;99604.50;5083757;28;20468;-68
2023/03/09 05:39:00;;;;;;;31.37;13.30;;;;;;;8.96;52.86;99606.78;5064212;28;20024;-68
2023/03/09 05:41:25;;;;;;;28.77;13.17;;;;;;;8.99;52.71;99612.75;5066136;28;20056;-68
2023/03/09 05:43:51;;;;;;;29.43;13.07;;;;;;;9.38;51.73;99611.00;5064347;28;20123;-68
2023/03/09 05:46:17;;;;;;;28.33;12.57;;;;;;;9.36;51.88;99625.84;5065610;28;20044;-69
2023/03/09 05:48:45;;;;;;;28.17;13.40;;;;;;;9.67;50.80;99625.91;5066319;28;20039;-68
2023/03/09 05:51:11;;;;;;;29.87;14.03;;;;;;;8.97;52.42;99627.59;5065658;28;20016;-68
2023/03/09 05:53:37;;;;;;;28.43;13.40;;;;;;;9.38;50.79;99624.03;5065146;28;20029;-68
2023/03/09 05:56:05;;;;;;;25.20;12.93;;;;;;;9.40;51.35;99622.28;5063170;28;20042;-68
2023/03/09 05:58:31;;;;;;;26.07;12.77;;;;;;;8.74;52.33;99622.03;5064519;28;20028;-69
2023/03/09 06:00:56;;;;;;;26.70;13.70;;;;;;;8.91;52.82;99625.09;5065510;28;20484;-68
2023/03/09 06:03:23;;;;;;;25.80;12.67;;;;;;;9.85;50.40;99616.78;5064074;28;20025;-68
2023/03/09 06:06:01;;;;;;;25.63;12.80;;;;;;;9.70;50.55;99630.19;5063753;28;20120;-68
2023/03/09 06:08:27;;;;;;;28.27;14.00;;;;;;;9.05;51.82;99631.78;5063702;28;20232;-68
2023/03/09 06:10:52;;;;;;;26.20;13.53;;;;;;;9.78;50.29;99649.13;5064035;28;20024;-68
2023/03/09 06:13:20;;;;;;;28.27;13.73;;;;;;;9.69;50.22;99655.44;5067261;28;20443;-68
2023/03/09 06:15:45;;;;;;;31.27;15.20;;;;;;;9.46;51.15;99663.84;5063779;28;20040;-68
2023/03/09 06:18:11;;;;;;;33.50;14.20;;;;;;;9.07;51.41;99661.28;5063376;28;20017;-68
2023/03/09 06:20:37;;;;;;;30.73;13.67;;;;;;;8.71;52.62;99675.06;5060881;28;20033;-68
2023/03/09 06:23:03;;;;;;;28.83;14.03;;;;;;;8.14;54.24;99683.94;5066682;28;20024;-68
2023/03/09 06:25:29;;;;;;;27.83;13.70;;;;;;;8.25;53.84;99676.78;5068419;28;20030;-68
2023/03/09 06:27:54;;;;;;;28.43;14.17;;;;;;;8.53;54.05;99676.31;5067997;28;20391;-68
2023/03/09 06:30:21;;;;;;;32.00;14.33;;;;;;;8.81;53.21;99686.16;5065444;28;20047;-68
2023/03/09 06:32:47;;;;;;;36.03;15.13;;;;;;;8.68;53.90;99695.09;5067002;28;20024;-68
2023/03/09 06:35:12;;;;;;;28.73;13.50;;;;;;;9.08;51.93;99702.06;5064047;28;20067;-68
2023/03/09 06:37:38;;;;;;;31.43;14.20;;;;;;;9.23;51.73;99704.38;5082057;28;20389;-68
2023/03/09 06:40:04;;;;;;;33.17;15.53;;;;;;;8.62;54.43;99712.56;5063470;28;20036;-68
2023/03/09 06:42:30;;;;;;;32.10;14.80;;;;;;;8.84;52.79;99712.13;5068209;28;20021;-68
2023/03/09 06:44:55;;;;;;;31.87;15.10;;;;;;;8.89;52.38;99699.88;5064431;28;20025;-68
2023/03/09 06:47:21;;;;;;;28.70;13.67;;;;;;;9.48;51.40;99709.03;5062739;28;20110;-68
2023/03/09 06:49:46;;;;;;;33.47;15.47;;;;;;;8.54;53.10;99714.47;5063832;28;20055;-68
2023/03/09 06:52:11;;;;;;;33.57;15.87;;;;;;;9.09;51.47;99722.03;5060295;28;20403;-68
2023/03/09 06:54:38;;;;;;;35.50;15.47;;;;;;;9.49;50.60;99721.16;5062672;28;20402;-68
2023/03/09 06:57:03;;;;;;;33.77;15.90;;;;;;;8.66;52.21;99739.44;5066607;28;20029;-68
2023/03/09 06:59:29;;;;;;;33.40;15.43;;;;;;;9.56;51.50;99743.63;5065854;28;20027;-68
2023/03/09 07:01:54;;;;;;;41.40;17.07;;;;;;;8.83;52.39;99736.47;5064508;28;20492;-68
2023/03/09 07:04:20;;;;;;;33.93;15.30;;;;;;;9.16;52.44;99734.06;5063306;28;20025;-68
2023/03/09 07:06:45;;;;;;;33.27;15.43;;;;;;;8.57;52.96;99732.66;5064584;28;20040;-68
2023/03/09 07:09:10;;;;;;;33.77;15.33;;;;;;;8.84;52.34;99743.41;5066332;28;20028;-68
2023/03/09 07:11:36;;;;;;;34.83;14.97;;;;;;;9.97;50.22;99743.50;5063693;28;20107;-68
2023/03/09 07:14:01;;;;;;;36.87;16.37;;;;;;;10.04;49.44;99755.50;5056813;28;20089;-68
2023/03/09 07:16:27;;;;;;;34.70;15.73;;;;;;;10.12;49.02;99760.53;5065356;28;20039;-67
2023/03/09 07:18:54;;;;;;;35.80;16.53;;;;;;;10.43;48.16;99775.47;5062603;28;20117;-68
2023/03/09 07:21:19;;;;;;;33.53;16.07;;;;;;;10.18;49.85;99774.28;5049745;28;20459;-69
2023/03/09 07:23:44;;;;;;;32.07;15.23;;;;;;;10.06;49.45;99768.53;5066403;28;20024;-68
2023/03/09 07:26:10;;;;;;;30.77;14.53;;;;;;;10.05;49.61;99778.09;5066863;28;20031;-68
2023/03/09 07:28:35;;;;;;;33.73;14.97;;;;;;;10.40;49.04;99793.81;5066364;28;20103;-68
2023/03/09 07:31:09;;;;;;;32.63;15.37;;;;;;;8.75;51.38;99795.69;5066649;28;20139;-69
2023/03/09 07:33:35;;;;;;;33.90;16.40;;;;;;;9.75;50.32;99795.34;5065007;28;20523;-68
2023/03/09 07:36:05;;;;;;;33.23;16.33;;;;;;;9.47;51.32;99793.38;5059057;28;20419;-69
2023/03/09 07:38:31;;;;;;;33.47;14.77;;;;;;;8.94;52.37;99797.09;5067665;28;20052;-68
2023/03/09 07:40:57;;;;;;;34.83;15.00;;;;;;;9.80;49.33;99803.94;5064835;28;20063;-68
2023/03/09 07:43:23;;;;;;;33.70;15.53;;;;;;;10.39;49.27;99815.63;5065762;28;20024;-68
2023/03/09 07:45:48;;;;;;;35.53;17.03;;;;;;;10.35;48.98;99814.84;5060898;28;20028;-69
2023/03/09 07:48:13;;;;;;;32.93;15.67;;;;;;;9.96;49.70;99800.06;5069507;28;20052;-69
2023/03/09 07:50:39;;;;;;;34.43;17.13;;;;;;;10.28;48.20;99821.94;5065988;28;20492;-68
2023/03/09 07:53:04;;;;;;;35.20;16.20;;;;;;;9.92;49.39;99808.88;5068239;28;20824;-67
2023/03/09 07:55:34;;;;;;;34.80;15.90;;;;;;;10.23;49.68;99813.34;5067807;28;20029;-70
2023/03/09 07:57:59;;;;;;;35.33;16.20;;;;;;;9.78;50.56;99816.16;5062056;28;20119;-68
2023/03/09 08:00:27;;;;;;;35.47;16.20;;;;;;;10.02;49.60;99805.13;5064702;28;20119;-68
2023/03/09 08:02:53;;;;;;;31.97;15.87;;;;;;;10.64;48.04;99814.06;5064967;28;20389;-69
2023/03/09 08:05:19;;;;;;;34.13;15.40;;;;;;;10.32;48.93;99822.72;5060673;28;20024;-69
2023/03/09 08:07:46;;;;;;;31.20;14.57;;;;;;;9.84;48.68;99826.47;5064676;28;20070;-68
2023/03/09 08:10:13;;;;;;;32.07;15.57;;;;;;;9.50;50.80;99832.44;5059656;28;20029;-68
2023/03/09 08:12:39;;;;;;;29.00;14.20;;;;;;;9.67;50.99;99825.09;5063363;28;20034;-68
2023/03/09 08:15:05;;;;;;;32.93;16.30;;;;;;;10.53;49.21;99813.50;5060323;28;20029;-69
2023/03/09 08:17:31;;;;;;;35.17;15.30;;;;;;;10.59;49.30;99810.75;5059078;28;21467;-68
2023/03/09 08:19:56;;;;;;;33.57;16.33;;;;;;;11.28;47.23;99804.47;5065728;28;20668;-69
2023/03/09 08:22:22;;;;;;;31.53;15.53;;;;;;;10.90;48.07;99820.34;5065217;28;20499;-68
2023/03/09 08:24:47;;;;;;;38.17;17.50;;;;;;;10.66;48.38;99822.75;5059490;28;20028;-68
2023/03/09 08:27:13;;;;;;;32.33;15.57;;;;;;;10.65;48.88;99826.25;5059350;28;20473;-68
2023/03/09 08:29:38;;;;;;;34.57;16.80;;;;;;;9.89;48.76;99824.63;5068499;28;20029;-69
2023/03/09 08:32:08;;;;;;;33.57;17.37;;;;;;;9.57;49.81;99828.78;5069210;28;20059;-68
2023/03/09 08:34:33;;;;;;;32.97;15.40;;;;;;;10.15;48.64;99841.41;5068778;28;20108;-69
2023/03/09 08:36:59;;;;;;;31.83;15.93;;;;;;;9.95;50.25;99845.34;5069443;28;20128;-69
2023/03/09 08:39:25;;;;;;;30.07;14.83;;;;;;;9.88;50.11;99862.03;5069485;28;20058;-69
2023/03/09 08:41:50;;;;;;;29.60;14.77;;;;;;;10.09;48.91;99868.53;5070637;28;20343;-69
2023/03/09 08:44:16;;;;;;;31.57;16.07;;;;;;;10.41;48.98;99879.13;5071313;28;20024;-69
2023/03/09 08:46:41;;;;;;;30.40;15.37;;;;;;;10.95;47.43;99876.00;5069983;28;20057;-69
2023/03/09 08:49:07;;;;;;;34.53;16.10;;;;;;;11.29;47.13;99879.44;5066380;28;20108;-68
2023/03/09 08:51:32;;;;;;;36.03;16.90;;;;;;;10.95;48.07;99881.22;5057478;28;20111;-68
2023/03/09 08:53:57;;;;;;;34.67;15.47;;;;;;;10.47;47.58;99879.00;5061932;28;20086;-69
2023/03/09 08:56:23;;;;;;;35.63;17.20;;;;;;;11.01;47.64;99872.34;5071766;28;20028;-69
2023/03/09 08:58:49;;;;;;;35.60;15.93;;;;;;;11.32;47.65;99861.91;5069251;28;20153;-69
2023/03/09 09:01:15;;;;;;;39.97;17.63;;;;;;;10.79;48.34;99877.31;5060804;28;20109;-68
2023/03/09 09:03:40;;;;;;;33.33;16.40;;;;;;;10.95;48.42;99876.00;5066221;28;20060;-69
2023/03/09 09:06:11;;;;;;;38.23;16.73;;;;;;;11.19;47.57;99889.31;5066654;28;20032;-69
2023/03/09 09:08:37;;;;;;;58.40;18.63;;;;;;;11.22;47.14;99878.75;5068019;28;20032;-69
2023/03/09 09:11:11;;;;;;;39.53;17.37;;;;;;;10.84;48.12;99872.81;5066570;28;20077;-69
2023/03/09 09:13:37;;;;;;;37.43;17.40;;;;;;;10.34;48.65;99889.75;5067890;28;20044;-68
2023/03/09 09:16:05;;;;;;;40.87;16.87;;;;;;;10.43;48.03;99893.03;5069095;28;20029;-68
2023/03/09 09:18:32;;;;;;;42.37;18.17;;;;;;;10.42;48.18;99880.84;5070846;28;20025;-70
2023/03/09 09:20:58;;;;;;;37.70;16.27;;;;;;;11.07;47.43;99885.25;5058282;28;20029;-68
2023/03/09 09:23:23;;;;;;;42.43;17.40;;;;;;;10.65;47.79;99890.72;5068656;28;20039;-68
2023/03/09 09:25:55;;;;;;;38.80;16.73;;;;;;;11.09;47.59;99898.31;5066748;28;20032;-69
2023/03/09 09:28:22;;;;;;;39.80;16.45;;;;;;;10.93;47.22;99898.69;5068323;28;20047;-69
2023/03/09 09:30:59;;;;;;;41.37;17.33;;;;;;;11.29;48.00;99903.88;5070874;28;20036;-69
2023/03/09 09:33:29;;;;;;;34.77;14.97;;;;;;;11.25;46.67;99920.53;5061869;28;20116;-68
2023/03/09 09:35:58;;;;;;;35.23;16.57;;;;;;;11.65;46.61;99923.78;5065413;28;20078;-69
2023/03/09 09:38:25;;;;;;;36.03;16.03;;;;;;;11.89;46.01;99915.19;5064184;28;20032;-68
2023/03/09 09:40:51;;;;;;;40.03;16.13;;;;;;;11.75;46.66;99913.91;5063708;28;20032;-68
2023/03/09 09:43:18;;;;;;;33.67;16.37;;;;;;;11.31;45.83;99909.91;5065312;28;20029;-69
2023/03/09 09:45:45;;;;;;;36.83;16.73;;;;;;;11.46;46.67;99923.47;5066554;28;20111;-69
2023/03/09 09:48:17;;;;;;;36.60;15.87;;;;;;;11.86;45.65;99922.31;5066781;28;20036;-68
2023/03/09 09:50:55;;;;;;;43.50;19.95;;;;;;;12.22;45.18;99916.88;5066235;28;20032;-69
2023/03/09 09:53:33;;;;;;;39.63;16.30;;;;;;;11.40;45.91;99907.91;5070127;28;20033;-68
2023/03/09 09:56:00;;;;;;;38.83;15.87;;;;;;;12.08;44.79;99908.59;5066651;28;20028;-68
2023/03/09 09:58:36;;;;;;;41.27;17.67;;;;;;;11.48;45.90;99913.78;5067210;28;20324;-68
2023/03/09 10:01:16;;;;;;;36.87;17.03;;;;;;;11.62;45.78;99909.03;5034439;28;20036;-69
2023/03/09 10:03:47;;;;;;;43.20;18.20;;;;;;;9.87;49.46;99915.13;5082179;28;20032;-68
2023/03/09 10:06:20;;;;;;;36.43;16.43;;;;;;;11.42;46.84;99906.13;5066530;28;20115;-69
2023/03/09 10:08:48;;;;;;;35.87;16.03;;;;;;;10.60;47.89;99905.66;5061633;28;20408;-68
2023/03/09 10:11:25;;;;;;;42.07;16.80;;;;;;;11.18;46.75;99898.03;5065106;28;20043;-69
2023/03/09 10:14:13;;;;;;;34.87;16.10;;;;;;;11.15;47.70;99888.53;5062336;28;20484;-68
2023/03/09 10:16:44;;;;;;;41.73;17.63;;;;;;;11.33;47.34;99887.19;5046109;28;20401;-69
2023/03/09 10:19:18;;;;;;;45.40;17.80;;;;;;;11.61;47.68;99880.25;5062933;28;20028;-68
2023/03/09 10:21:58;;;;;;;38.47;16.83;;;;;;;11.87;45.44;99885.59;5066610;28;20036;-68
2023/03/09 10:24:25;;;;;;;35.40;15.17;;;;;;;11.11;46.68;99891.28;5063108;28;20025;-68
2023/03/09 10:27:00;;;;;;;39.37;17.00;;;;;;;11.08;46.91;99888.75;5058149;28;20310;-69
2023/03/09 10:29:47;;;;;;;37.27;16.33;;;;;;;10.67;47.35;99895.03;5064037;28;20056;-69
2023/03/09 10:32:31;;;;;;;34.40;16.27;;;;;;;11.14;47.68;99896.41;5062242;28;20505;-69
2023/03/09 10:35:17;;;;;;;40.53;16.90;;;;;;;11.76;46.88;99899.91;5055277;28;20042;-69
2023/03/09 10:37:46;;;;;;;42.90;16.97;;;;;;;10.32;49.68;99915.00;5063994;28;21433;-69
2023/03/09 10:40:29;;;;;;;44.57;18.60;;;;;;;11.36;47.93;99910.63;5077192;28;20103;-69
2023/03/09 10:42:58;;;;;;;42.17;17.38;;;;;;;11.43;47.46;99907.81;5061244;28;20033;-69
2023/03/09 10:45:25;;;;;;;48.03;18.77;;;;;;;12.18;45.87;99912.63;5062221;28;20533;-69
2023/03/09 10:47:54;;;;;;;44.27;18.57;;;;;;;10.27;49.65;99919.47;5059682;28;20223;-69
2023/03/09 10:50:21;;;;;;;45.47;17.67;;;;;;;11.11;48.88;99922.66;5059231;28;20025;-69
2023/03/09 10:52:49;;;;;;;44.83;17.80;;;;;;;11.04;48.52;99927.19;5049158;28;20020;-67
2023/03/09 10:55:45;;;;;;;42.83;18.23;;;;;;;11.84;48.18;99924.09;5064700;28;20131;-70
2023/03/09 10:58:21;;;;;;;45.50;20.00;;;;;;;11.20;48.09;99933.72;5055212;28;20076;-68
2023/03/09 11:00:54;;;;;;;41.00;18.37;;;;;;;10.90;49.14;99932.78;5063271;28;20073;-68
2023/03/09 11:03:44;;;;;;;45.17;19.00;;;;;;;10.19;50.16;99931.84;5057982;28;20049;-70
2023/03/09 11:06:37;;;;;;;40.90;17.90;;;;;;;10.58;50.38;99928.34;5063390;28;20043;-70
2023/03/09 11:09:13;;;;;;;39.80;18.60;;;;;;;11.60;48.17;99925.69;5067723;28;20484;-70
2023/03/09 11:11:40;;;;;;;44.17;19.10;;;;;;;10.86;50.28;99923.31;5068976;28;20056;-70
2023/03/09 11:14:18;;;;;;;46.40;18.70;;;;;;;10.91;50.01;99926.66;5061998;28;20054;-69
2023/03/09 11:16:53;;;;;;;42.80;18.57;;;;;;;11.46;48.98;99919.06;5064407;28;20035;-70
2023/03/09 11:19:19;;;;;;;39.47;17.73;;;;;;;11.07;49.54;99921.03;5080262;28;20027;-70
2023/03/09 11:21:57;;;;;;;40.13;18.13;;;;;;;11.15;49.59;99913.81;5066568;28;20024;-68
2023/03/09 11:24:43;;;;;;;47.43;18.80;;;;;;;10.94;50.77;99917.88;5067453;28;20115;-70